sensor_id;sensor_type;location;lat;lon;timestamp;temperature;humidity
55004;DHT22;40900;52.710;6.438;2023-09-18T00:00:50;18.10;99.90
55004;DHT22;40900;52.710;6.438;2023-09-18T00:03:17;18.10;99.90
55004;DHT22;40900;52.710;6.438;2023-09-18T00:05:45;18.00;99.90
55004;DHT22;40900;52.710;6.438;2023-09-18T00:08:11;18.00;99.90
55004;DHT22;40900;52.710;6.438;2023-09-18T00:10:36;18.00;99.90
55004;DHT22;40900;52.710;6.438;2023-09-18T00:13:03;18.00;99.90
55004;DHT22;40900;52.710;6.438;2023-09-18T00:15:28;17.90;99.90
55004;DHT22;40900;52.710;6.438;2023-09-18T00:17:54;17.90;99.90
55004;DHT22;40900;52.710;6.438;2023-09-18T00:20:21;17.90;99.90
55004;DHT22;40900;52.710;6.438;2023-09-18T00:22:56;18.00;99.90
55004;DHT22;40900;52.710;6.438;2023-09-18T00:25:22;18.00;99.90
55004;DHT22;40900;52.710;6.438;2023-09-18T00:27:48;18.00;99.90
55004;DHT22;40900;52.710;6.438;2023-09-18T00:30:14;18.00;99.90
55004;DHT22;40900;52.710;6.438;2023-09-18T00:32:40;18.10;99.90
55004;DHT22;40900;52.710;6.438;2023-09-18T00:35:06;18.10;99.90
55004;DHT22;40900;52.710;6.438;2023-09-18T00:37:32;18.10;99.90
55004;DHT22;40900;52.710;6.438;2023-09-18T00:39:58;18.10;99.90
55004;DHT22;40900;52.710;6.438;2023-09-18T00:42:25;18.10;99.90
55004;DHT22;40900;52.710;6.438;2023-09-18T00:44:50;18.10;99.90
55004;DHT22;40900;52.710;6.438;2023-09-18T00:47:17;18.20;99.90
55004;DHT22;40900;52.710;6.438;2023-09-18T00:49:46;18.20;99.90
55004;DHT22;40900;52.710;6.438;2023-09-18T00:52:13;18.20;99.90
55004;DHT22;40900;52.710;6.438;2023-09-18T00:54:40;18.20;99.90
55004;DHT22;40900;52.710;6.438;2023-09-18T00:57:09;18.20;99.90
55004;DHT22;40900;52.710;6.438;2023-09-18T00:59:36;18.20;99.90
55004;DHT22;40900;52.710;6.438;2023-09-18T01:02:03;18.20;99.90
55004;DHT22;40900;52.710;6.438;2023-09-18T01:04:30;18.20;99.90
55004;DHT22;40900;52.710;6.438;2023-09-18T01:07:01;18.20;99.90
55004;DHT22;40900;52.710;6.438;2023-09-18T01:09:32;18.20;99.90
55004;DHT22;40900;52.710;6.438;2023-09-18T01:12:36;18.20;99.90
55004;DHT22;40900;52.710;6.438;2023-09-18T01:15:12;18.20;99.90
55004;DHT22;40900;52.710;6.438;2023-09-18T01:17:39;18.20;99.90
55004;DHT22;40900;52.710;6.438;2023-09-18T01:20:09;18.20;99.90
55004;DHT22;40900;52.710;6.438;2023-09-18T01:22:35;18.20;99.90
55004;DHT22;40900;52.710;6.438;2023-09-18T01:25:00;18.20;99.90
55004;DHT22;40900;52.710;6.438;2023-09-18T01:27:26;18.20;99.90
55004;DHT22;40900;52.710;6.438;2023-09-18T01:29:52;18.20;99.90
55004;DHT22;40900;52.710;6.438;2023-09-18T01:32:19;18.20;99.90
55004;DHT22;40900;52.710;6.438;2023-09-18T01:34:47;18.10;99.90
55004;DHT22;40900;52.710;6.438;2023-09-18T01:37:16;18.10;99.90
55004;DHT22;40900;52.710;6.438;2023-09-18T01:39:43;18.20;99.90
55004;DHT22;40900;52.710;6.438;2023-09-18T01:42:10;18.10;99.90
55004;DHT22;40900;52.710;6.438;2023-09-18T01:44:36;18.10;99.90
55004;DHT22;40900;52.710;6.438;2023-09-18T01:47:07;18.10;99.90
55004;DHT22;40900;52.710;6.438;2023-09-18T01:49:38;18.10;99.90
55004;DHT22;40900;52.710;6.438;2023-09-18T01:52:05;18.10;99.90
55004;DHT22;40900;52.710;6.438;2023-09-18T01:54:32;18.10;99.90
55004;DHT22;40900;52.710;6.438;2023-09-18T01:56:58;18.00;99.90
55004;DHT22;40900;52.710;6.438;2023-09-18T01:59:24;18.10;99.90
55004;DHT22;40900;52.710;6.438;2023-09-18T02:01:51;18.00;99.90
55004;DHT22;40900;52.710;6.438;2023-09-18T02:04:17;18.00;99.90
55004;DHT22;40900;52.710;6.438;2023-09-18T02:06:44;18.00;99.90
55004;DHT22;40900;52.710;6.438;2023-09-18T02:09:10;18.00;99.90
55004;DHT22;40900;52.710;6.438;2023-09-18T02:11:38;18.00;99.90
55004;DHT22;40900;52.710;6.438;2023-09-18T02:14:04;18.00;99.90
55004;DHT22;40900;52.710;6.438;2023-09-18T02:16:35;18.00;99.90
55004;DHT22;40900;52.710;6.438;2023-09-18T02:19:02;18.00;99.90
55004;DHT22;40900;52.710;6.438;2023-09-18T02:21:28;18.00;99.90
55004;DHT22;40900;52.710;6.438;2023-09-18T02:23:54;18.00;99.90
55004;DHT22;40900;52.710;6.438;2023-09-18T02:26:24;18.00;99.90
55004;DHT22;40900;52.710;6.438;2023-09-18T02:28:54;18.00;99.90
55004;DHT22;40900;52.710;6.438;2023-09-18T02:31:20;18.00;99.90
55004;DHT22;40900;52.710;6.438;2023-09-18T02:33:47;18.00;99.90
55004;DHT22;40900;52.710;6.438;2023-09-18T02:36:13;18.00;99.90
55004;DHT22;40900;52.710;6.438;2023-09-18T02:38:39;18.00;99.90
55004;DHT22;40900;52.710;6.438;2023-09-18T02:41:04;18.00;99.90
55004;DHT22;40900;52.710;6.438;2023-09-18T02:43:30;18.00;99.90
55004;DHT22;40900;52.710;6.438;2023-09-18T02:45:56;18.00;99.90
55004;DHT22;40900;52.710;6.438;2023-09-18T02:48:22;18.00;99.90
55004;DHT22;40900;52.710;6.438;2023-09-18T02:50:47;18.00;99.90
55004;DHT22;40900;52.710;6.438;2023-09-18T02:53:18;18.00;99.90
55004;DHT22;40900;52.710;6.438;2023-09-18T02:55:48;18.00;99.90
55004;DHT22;40900;52.710;6.438;2023-09-18T02:58:14;18.00;99.90
55004;DHT22;40900;52.710;6.438;2023-09-18T03:00:46;18.00;99.90
55004;DHT22;40900;52.710;6.438;2023-09-18T03:03:13;18.00;99.90
55004;DHT22;40900;52.710;6.438;2023-09-18T03:05:39;18.00;99.90
55004;DHT22;40900;52.710;6.438;2023-09-18T03:08:05;18.00;99.90
55004;DHT22;40900;52.710;6.438;2023-09-18T03:10:35;18.00;99.90
55004;DHT22;40900;52.710;6.438;2023-09-18T03:13:04;18.00;99.90
55004;DHT22;40900;52.710;6.438;2023-09-18T03:15:31;18.00;99.90
55004;DHT22;40900;52.710;6.438;2023-09-18T03:18:00;18.00;99.90
55004;DHT22;40900;52.710;6.438;2023-09-18T03:20:27;18.00;99.90
55004;DHT22;40900;52.710;6.438;2023-09-18T03:22:58;18.00;99.90
55004;DHT22;40900;52.710;6.438;2023-09-18T03:25:25;18.00;99.90
55004;DHT22;40900;52.710;6.438;2023-09-18T03:27:55;18.10;99.90
55004;DHT22;40900;52.710;6.438;2023-09-18T03:30:22;18.00;99.90
55004;DHT22;40900;52.710;6.438;2023-09-18T03:32:52;18.00;99.90
55004;DHT22;40900;52.710;6.438;2023-09-18T03:35:19;18.10;99.90
55004;DHT22;40900;52.710;6.438;2023-09-18T03:37:49;18.00;99.90
55004;DHT22;40900;52.710;6.438;2023-09-18T03:40:17;18.00;99.90
55004;DHT22;40900;52.710;6.438;2023-09-18T03:42:43;18.10;99.90
55004;DHT22;40900;52.710;6.438;2023-09-18T03:45:09;18.00;99.90
55004;DHT22;40900;52.710;6.438;2023-09-18T03:47:37;18.10;99.90
55004;DHT22;40900;52.710;6.438;2023-09-18T03:50:05;18.10;99.90
55004;DHT22;40900;52.710;6.438;2023-09-18T03:52:31;18.10;99.90
55004;DHT22;40900;52.710;6.438;2023-09-18T03:54:57;18.10;99.90
55004;DHT22;40900;52.710;6.438;2023-09-18T03:57:24;18.10;99.90
55004;DHT22;40900;52.710;6.438;2023-09-18T03:59:50;18.10;99.90
55004;DHT22;40900;52.710;6.438;2023-09-18T04:02:15;18.20;99.90
55004;DHT22;40900;52.710;6.438;2023-09-18T04:04:41;18.10;99.90
55004;DHT22;40900;52.710;6.438;2023-09-18T04:07:08;18.10;99.90
55004;DHT22;40900;52.710;6.438;2023-09-18T04:09:34;18.20;99.90
55004;DHT22;40900;52.710;6.438;2023-09-18T04:12:04;18.20;99.90
55004;DHT22;40900;52.710;6.438;2023-09-18T04:14:33;18.20;99.90
55004;DHT22;40900;52.710;6.438;2023-09-18T04:16:59;18.20;99.90
55004;DHT22;40900;52.710;6.438;2023-09-18T04:19:28;18.20;99.90
55004;DHT22;40900;52.710;6.438;2023-09-18T04:21:54;18.20;99.90
55004;DHT22;40900;52.710;6.438;2023-09-18T04:24:20;18.30;99.90
55004;DHT22;40900;52.710;6.438;2023-09-18T04:26:46;18.20;99.90
55004;DHT22;40900;52.710;6.438;2023-09-18T04:29:12;18.20;99.90
55004;DHT22;40900;52.710;6.438;2023-09-18T04:31:37;18.30;99.90
55004;DHT22;40900;52.710;6.438;2023-09-18T04:34:03;18.30;99.90
55004;DHT22;40900;52.710;6.438;2023-09-18T04:36:30;18.30;99.90
55004;DHT22;40900;52.710;6.438;2023-09-18T04:38:55;18.30;99.90
55004;DHT22;40900;52.710;6.438;2023-09-18T04:41:21;18.30;99.90
55004;DHT22;40900;52.710;6.438;2023-09-18T04:43:47;18.30;99.90
55004;DHT22;40900;52.710;6.438;2023-09-18T04:46:13;18.30;99.90
55004;DHT22;40900;52.710;6.438;2023-09-18T04:48:39;18.30;99.90
55004;DHT22;40900;52.710;6.438;2023-09-18T04:51:05;18.30;99.90
55004;DHT22;40900;52.710;6.438;2023-09-18T04:53:31;18.30;99.90
55004;DHT22;40900;52.710;6.438;2023-09-18T04:55:57;18.30;99.90
55004;DHT22;40900;52.710;6.438;2023-09-18T04:58:23;18.30;99.90
55004;DHT22;40900;52.710;6.438;2023-09-18T05:00:57;18.30;99.90
55004;DHT22;40900;52.710;6.438;2023-09-18T05:03:23;18.30;99.90
55004;DHT22;40900;52.710;6.438;2023-09-18T05:05:49;18.30;99.90
55004;DHT22;40900;52.710;6.438;2023-09-18T05:08:14;18.30;99.90
55004;DHT22;40900;52.710;6.438;2023-09-18T05:10:41;18.20;99.90
55004;DHT22;40900;52.710;6.438;2023-09-18T05:13:06;18.30;99.90
55004;DHT22;40900;52.710;6.438;2023-09-18T05:15:32;18.30;99.90
55004;DHT22;40900;52.710;6.438;2023-09-18T05:17:59;18.30;99.90
55004;DHT22;40900;52.710;6.438;2023-09-18T05:20:27;18.30;99.90
55004;DHT22;40900;52.710;6.438;2023-09-18T05:22:54;18.30;99.90
55004;DHT22;40900;52.710;6.438;2023-09-18T05:25:22;18.30;99.90
55004;DHT22;40900;52.710;6.438;2023-09-18T05:27:49;18.30;99.90
55004;DHT22;40900;52.710;6.438;2023-09-18T05:30:23;18.30;99.90
55004;DHT22;40900;52.710;6.438;2023-09-18T05:32:49;18.30;99.90
55004;DHT22;40900;52.710;6.438;2023-09-18T05:35:15;18.30;99.90
55004;DHT22;40900;52.710;6.438;2023-09-18T05:37:42;18.30;99.90
55004;DHT22;40900;52.710;6.438;2023-09-18T05:40:10;18.30;99.90
55004;DHT22;40900;52.710;6.438;2023-09-18T05:42:41;18.30;99.90
55004;DHT22;40900;52.710;6.438;2023-09-18T05:45:12;18.30;99.90
55004;DHT22;40900;52.710;6.438;2023-09-18T05:47:38;18.30;99.90
55004;DHT22;40900;52.710;6.438;2023-09-18T05:50:06;18.30;99.90
55004;DHT22;40900;52.710;6.438;2023-09-18T05:52:33;18.30;99.90
55004;DHT22;40900;52.710;6.438;2023-09-18T05:54:59;18.30;99.90
55004;DHT22;40900;52.710;6.438;2023-09-18T05:57:26;18.30;99.90
55004;DHT22;40900;52.710;6.438;2023-09-18T05:59:56;18.30;99.90
55004;DHT22;40900;52.710;6.438;2023-09-18T06:02:22;18.30;99.90
55004;DHT22;40900;52.710;6.438;2023-09-18T06:04:48;18.30;99.90
55004;DHT22;40900;52.710;6.438;2023-09-18T06:07:14;18.30;99.90
55004;DHT22;40900;52.710;6.438;2023-09-18T06:09:41;18.30;99.90
55004;DHT22;40900;52.710;6.438;2023-09-18T06:12:07;18.40;99.90
55004;DHT22;40900;52.710;6.438;2023-09-18T06:14:35;18.40;99.90
55004;DHT22;40900;52.710;6.438;2023-09-18T06:17:01;18.40;99.90
55004;DHT22;40900;52.710;6.438;2023-09-18T06:19:27;18.40;99.90
55004;DHT22;40900;52.710;6.438;2023-09-18T06:21:53;18.40;99.90
55004;DHT22;40900;52.710;6.438;2023-09-18T06:24:19;18.40;99.90
55004;DHT22;40900;52.710;6.438;2023-09-18T06:26:44;18.40;99.90
55004;DHT22;40900;52.710;6.438;2023-09-18T06:29:10;18.50;99.90
55004;DHT22;40900;52.710;6.438;2023-09-18T06:31:36;18.40;99.90
55004;DHT22;40900;52.710;6.438;2023-09-18T06:34:02;18.50;99.90
55004;DHT22;40900;52.710;6.438;2023-09-18T06:36:27;18.50;99.90
55004;DHT22;40900;52.710;6.438;2023-09-18T06:38:53;18.40;99.90
55004;DHT22;40900;52.710;6.438;2023-09-18T06:41:19;18.50;99.90
55004;DHT22;40900;52.710;6.438;2023-09-18T06:43:45;18.50;99.90
55004;DHT22;40900;52.710;6.438;2023-09-18T06:46:11;18.40;99.90
55004;DHT22;40900;52.710;6.438;2023-09-18T06:48:36;18.40;99.90
55004;DHT22;40900;52.710;6.438;2023-09-18T06:51:02;18.50;99.90
55004;DHT22;40900;52.710;6.438;2023-09-18T06:53:28;18.40;99.90
55004;DHT22;40900;52.710;6.438;2023-09-18T06:55:54;18.40;99.90
55004;DHT22;40900;52.710;6.438;2023-09-18T06:58:20;18.30;99.90
55004;DHT22;40900;52.710;6.438;2023-09-18T07:00:47;18.30;99.90
55004;DHT22;40900;52.710;6.438;2023-09-18T07:03:13;18.20;99.90
55004;DHT22;40900;52.710;6.438;2023-09-18T07:05:40;18.30;99.90
55004;DHT22;40900;52.710;6.438;2023-09-18T07:08:06;18.30;99.90
55004;DHT22;40900;52.710;6.438;2023-09-18T07:10:37;18.30;99.90
55004;DHT22;40900;52.710;6.438;2023-09-18T07:13:03;18.30;99.90
55004;DHT22;40900;52.710;6.438;2023-09-18T07:15:29;18.30;99.90
55004;DHT22;40900;52.710;6.438;2023-09-18T07:17:55;18.30;99.90
55004;DHT22;40900;52.710;6.438;2023-09-18T07:20:20;18.30;99.90
55004;DHT22;40900;52.710;6.438;2023-09-18T07:22:48;18.30;99.90
55004;DHT22;40900;52.710;6.438;2023-09-18T07:25:14;18.30;99.90
55004;DHT22;40900;52.710;6.438;2023-09-18T07:27:40;18.40;99.90
55004;DHT22;40900;52.710;6.438;2023-09-18T07:30:11;18.40;99.90
55004;DHT22;40900;52.710;6.438;2023-09-18T07:32:39;18.40;99.90
55004;DHT22;40900;52.710;6.438;2023-09-18T07:35:06;18.40;99.90
55004;DHT22;40900;52.710;6.438;2023-09-18T07:37:33;18.40;99.90
55004;DHT22;40900;52.710;6.438;2023-09-18T07:39:59;18.40;99.90
55004;DHT22;40900;52.710;6.438;2023-09-18T07:42:26;18.40;99.90
55004;DHT22;40900;52.710;6.438;2023-09-18T07:44:53;18.40;99.90
55004;DHT22;40900;52.710;6.438;2023-09-18T07:47:20;18.40;99.90
55004;DHT22;40900;52.710;6.438;2023-09-18T07:49:46;18.40;99.90
55004;DHT22;40900;52.710;6.438;2023-09-18T07:52:12;18.40;99.90
55004;DHT22;40900;52.710;6.438;2023-09-18T07:54:38;18.40;99.90
55004;DHT22;40900;52.710;6.438;2023-09-18T07:57:04;18.50;99.90
55004;DHT22;40900;52.710;6.438;2023-09-18T07:59:35;18.50;99.90
55004;DHT22;40900;52.710;6.438;2023-09-18T08:02:02;18.60;99.90
55004;DHT22;40900;52.710;6.438;2023-09-18T08:04:31;18.60;99.90
55004;DHT22;40900;52.710;6.438;2023-09-18T08:06:58;18.50;99.90
55004;DHT22;40900;52.710;6.438;2023-09-18T08:09:24;18.60;99.90
55004;DHT22;40900;52.710;6.438;2023-09-18T08:11:49;18.50;99.90
55004;DHT22;40900;52.710;6.438;2023-09-18T08:14:16;18.60;99.90
55004;DHT22;40900;52.710;6.438;2023-09-18T08:16:42;18.70;99.90
55004;DHT22;40900;52.710;6.438;2023-09-18T08:19:08;18.80;99.90
55004;DHT22;40900;52.710;6.438;2023-09-18T08:21:35;18.80;99.90
55004;DHT22;40900;52.710;6.438;2023-09-18T08:24:01;18.80;99.90
55004;DHT22;40900;52.710;6.438;2023-09-18T08:26:26;18.90;99.90
55004;DHT22;40900;52.710;6.438;2023-09-18T08:28:54;18.90;99.90
55004;DHT22;40900;52.710;6.438;2023-09-18T08:31:19;18.90;99.90
55004;DHT22;40900;52.710;6.438;2023-09-18T08:33:45;19.00;99.90
55004;DHT22;40900;52.710;6.438;2023-09-18T08:36:11;19.10;99.90
55004;DHT22;40900;52.710;6.438;2023-09-18T08:38:37;19.10;99.90
55004;DHT22;40900;52.710;6.438;2023-09-18T08:41:02;19.10;99.90
55004;DHT22;40900;52.710;6.438;2023-09-18T08:43:31;19.10;99.90
55004;DHT22;40900;52.710;6.438;2023-09-18T08:45:57;19.20;99.90
55004;DHT22;40900;52.710;6.438;2023-09-18T08:48:28;19.10;99.90
55004;DHT22;40900;52.710;6.438;2023-09-18T08:51:07;19.20;99.90
55004;DHT22;40900;52.710;6.438;2023-09-18T08:53:34;19.20;99.90
55004;DHT22;40900;52.710;6.438;2023-09-18T08:56:03;19.20;99.90
55004;DHT22;40900;52.710;6.438;2023-09-18T08:58:34;19.20;99.90
55004;DHT22;40900;52.710;6.438;2023-09-18T09:01:03;19.20;99.90
55004;DHT22;40900;52.710;6.438;2023-09-18T09:03:31;19.20;99.90
55004;DHT22;40900;52.710;6.438;2023-09-18T09:06:00;19.20;99.90
55004;DHT22;40900;52.710;6.438;2023-09-18T09:08:28;19.20;99.90
55004;DHT22;40900;52.710;6.438;2023-09-18T09:10:54;19.20;99.90
55004;DHT22;40900;52.710;6.438;2023-09-18T09:13:23;19.30;99.90
55004;DHT22;40900;52.710;6.438;2023-09-18T09:15:52;19.30;99.90
55004;DHT22;40900;52.710;6.438;2023-09-18T09:18:20;19.40;99.90
55004;DHT22;40900;52.710;6.438;2023-09-18T09:21:00;19.40;99.90
55004;DHT22;40900;52.710;6.438;2023-09-18T09:23:27;19.50;99.90
55004;DHT22;40900;52.710;6.438;2023-09-18T09:25:54;19.60;99.90
55004;DHT22;40900;52.710;6.438;2023-09-18T09:28:30;19.80;99.90
55004;DHT22;40900;52.710;6.438;2023-09-18T09:31:02;19.90;99.90
55004;DHT22;40900;52.710;6.438;2023-09-18T09:33:28;20.00;99.90
55004;DHT22;40900;52.710;6.438;2023-09-18T09:35:55;20.10;99.90
55004;DHT22;40900;52.710;6.438;2023-09-18T09:38:31;20.10;99.90
55004;DHT22;40900;52.710;6.438;2023-09-18T09:40:58;20.10;99.90
55004;DHT22;40900;52.710;6.438;2023-09-18T09:43:31;20.30;99.90
55004;DHT22;40900;52.710;6.438;2023-09-18T09:45:59;20.40;99.90
55004;DHT22;40900;52.710;6.438;2023-09-18T09:48:25;20.50;99.90
55004;DHT22;40900;52.710;6.438;2023-09-18T09:50:52;20.50;99.90
55004;DHT22;40900;52.710;6.438;2023-09-18T09:53:44;20.50;99.90
55004;DHT22;40900;52.710;6.438;2023-09-18T09:56:14;20.50;99.90
55004;DHT22;40900;52.710;6.438;2023-09-18T09:58:45;20.70;99.90
55004;DHT22;40900;52.710;6.438;2023-09-18T10:01:25;20.80;99.90
55004;DHT22;40900;52.710;6.438;2023-09-18T10:03:54;20.80;99.90
55004;DHT22;40900;52.710;6.438;2023-09-18T10:06:21;20.80;99.90
55004;DHT22;40900;52.710;6.438;2023-09-18T10:08:47;20.80;99.90
55004;DHT22;40900;52.710;6.438;2023-09-18T10:11:13;20.90;99.90
55004;DHT22;40900;52.710;6.438;2023-09-18T10:14:18;20.90;99.90
55004;DHT22;40900;52.710;6.438;2023-09-18T10:16:54;21.10;99.90
55004;DHT22;40900;52.710;6.438;2023-09-18T10:22:40;21.70;99.90
55004;DHT22;40900;52.710;6.438;2023-09-18T10:25:20;22.40;99.90
55004;DHT22;40900;52.710;6.438;2023-09-18T10:27:50;23.10;99.90
55004;DHT22;40900;52.710;6.438;2023-09-18T10:30:19;23.00;99.90
55004;DHT22;40900;52.710;6.438;2023-09-18T10:32:45;23.60;99.90
55004;DHT22;40900;52.710;6.438;2023-09-18T10:35:12;24.40;99.90
55004;DHT22;40900;52.710;6.438;2023-09-18T10:37:38;24.40;99.90
55004;DHT22;40900;52.710;6.438;2023-09-18T10:40:11;24.80;99.90
55004;DHT22;40900;52.710;6.438;2023-09-18T10:42:39;24.20;99.90
55004;DHT22;40900;52.710;6.438;2023-09-18T10:45:09;24.00;99.90
55004;DHT22;40900;52.710;6.438;2023-09-18T10:47:39;24.10;99.90
55004;DHT22;40900;52.710;6.438;2023-09-18T10:50:06;24.10;99.90
55004;DHT22;40900;52.710;6.438;2023-09-18T10:52:36;23.30;99.90
55004;DHT22;40900;52.710;6.438;2023-09-18T10:55:12;22.90;99.90
55004;DHT22;40900;52.710;6.438;2023-09-18T10:57:50;22.80;99.90
55004;DHT22;40900;52.710;6.438;2023-09-18T11:00:17;23.00;99.90
55004;DHT22;40900;52.710;6.438;2023-09-18T11:02:52;22.70;99.90
55004;DHT22;40900;52.710;6.438;2023-09-18T11:05:32;22.60;99.90
55004;DHT22;40900;52.710;6.438;2023-09-18T11:08:27;22.70;99.90
55004;DHT22;40900;52.710;6.438;2023-09-18T11:11:03;22.70;99.90
55004;DHT22;40900;52.710;6.438;2023-09-18T11:13:46;22.90;99.90
55004;DHT22;40900;52.710;6.438;2023-09-18T11:19:04;24.10;99.90
55004;DHT22;40900;52.710;6.438;2023-09-18T11:21:34;24.20;99.90
55004;DHT22;40900;52.710;6.438;2023-09-18T11:24:06;24.20;99.90
55004;DHT22;40900;52.710;6.438;2023-09-18T11:26:36;23.70;99.90
55004;DHT22;40900;52.710;6.438;2023-09-18T11:29:07;23.60;99.90
55004;DHT22;40900;52.710;6.438;2023-09-18T11:31:44;23.60;99.90
55004;DHT22;40900;52.710;6.438;2023-09-18T11:36:40;23.10;99.90
55004;DHT22;40900;52.710;6.438;2023-09-18T11:39:06;22.80;99.90
55004;DHT22;40900;52.710;6.438;2023-09-18T11:41:35;22.70;99.90
55004;DHT22;40900;52.710;6.438;2023-09-18T11:46:40;22.20;99.90
55004;DHT22;40900;52.710;6.438;2023-09-18T11:49:10;22.10;99.90
55004;DHT22;40900;52.710;6.438;2023-09-18T11:51:37;22.00;99.90
55004;DHT22;40900;52.710;6.438;2023-09-18T11:54:03;21.90;99.90
55004;DHT22;40900;52.710;6.438;2023-09-18T11:56:32;21.80;99.90
55004;DHT22;40900;52.710;6.438;2023-09-18T11:58:58;21.70;99.90
55004;DHT22;40900;52.710;6.438;2023-09-18T12:01:25;21.70;99.90
55004;DHT22;40900;52.710;6.438;2023-09-18T12:03:54;21.50;99.90
55004;DHT22;40900;52.710;6.438;2023-09-18T12:06:20;21.60;99.90
55004;DHT22;40900;52.710;6.438;2023-09-18T12:08:46;21.60;99.90
55004;DHT22;40900;52.710;6.438;2023-09-18T12:11:14;21.40;99.90
55004;DHT22;40900;52.710;6.438;2023-09-18T12:13:43;21.30;99.90
55004;DHT22;40900;52.710;6.438;2023-09-18T12:16:09;21.60;99.90
55004;DHT22;40900;52.710;6.438;2023-09-18T12:18:35;21.90;99.90
55004;DHT22;40900;52.710;6.438;2023-09-18T12:21:06;22.10;99.90
55004;DHT22;40900;52.710;6.438;2023-09-18T12:23:39;22.30;99.90
55004;DHT22;40900;52.710;6.438;2023-09-18T12:26:05;22.40;99.90
55004;DHT22;40900;52.710;6.438;2023-09-18T12:28:35;22.30;99.90
55004;DHT22;40900;52.710;6.438;2023-09-18T12:31:04;22.20;99.90
55004;DHT22;40900;52.710;6.438;2023-09-18T12:33:37;22.40;99.90
55004;DHT22;40900;52.710;6.438;2023-09-18T12:36:04;22.50;99.90
55004;DHT22;40900;52.710;6.438;2023-09-18T12:38:30;22.70;99.90
55004;DHT22;40900;52.710;6.438;2023-09-18T12:40:57;22.80;99.90
55004;DHT22;40900;52.710;6.438;2023-09-18T12:43:33;22.90;99.90
55004;DHT22;40900;52.710;6.438;2023-09-18T12:45:59;22.90;99.90
55004;DHT22;40900;52.710;6.438;2023-09-18T12:48:25;22.90;99.90
55004;DHT22;40900;52.710;6.438;2023-09-18T12:50:52;22.90;99.90
55004;DHT22;40900;52.710;6.438;2023-09-18T12:53:22;22.80;99.90
55004;DHT22;40900;52.710;6.438;2023-09-18T12:55:48;22.90;99.90
55004;DHT22;40900;52.710;6.438;2023-09-18T12:58:19;22.90;99.90
55004;DHT22;40900;52.710;6.438;2023-09-18T13:00:49;23.00;99.90
55004;DHT22;40900;52.710;6.438;2023-09-18T13:03:16;23.00;99.90
55004;DHT22;40900;52.710;6.438;2023-09-18T13:05:42;23.00;99.90
55004;DHT22;40900;52.710;6.438;2023-09-18T13:08:08;22.90;99.90
55004;DHT22;40900;52.710;6.438;2023-09-18T13:10:46;23.00;99.90
55004;DHT22;40900;52.710;6.438;2023-09-18T13:13:20;23.10;99.90
55004;DHT22;40900;52.710;6.438;2023-09-18T13:15:46;23.10;99.90
55004;DHT22;40900;52.710;6.438;2023-09-18T13:18:14;23.10;99.90
55004;DHT22;40900;52.710;6.438;2023-09-18T13:20:40;23.30;99.90
55004;DHT22;40900;52.710;6.438;2023-09-18T13:23:06;23.40;99.90
55004;DHT22;40900;52.710;6.438;2023-09-18T13:25:36;23.20;99.90
55004;DHT22;40900;52.710;6.438;2023-09-18T13:28:08;23.20;99.90
55004;DHT22;40900;52.710;6.438;2023-09-18T13:30:36;23.20;99.90
55004;DHT22;40900;52.710;6.438;2023-09-18T13:33:11;23.00;99.90
55004;DHT22;40900;52.710;6.438;2023-09-18T13:35:43;22.80;99.90
55004;DHT22;40900;52.710;6.438;2023-09-18T13:38:09;22.90;99.90
55004;DHT22;40900;52.710;6.438;2023-09-18T13:40:40;23.00;99.90
55004;DHT22;40900;52.710;6.438;2023-09-18T13:43:08;23.10;99.90
55004;DHT22;40900;52.710;6.438;2023-09-18T13:45:34;23.10;99.90
55004;DHT22;40900;52.710;6.438;2023-09-18T13:48:02;23.10;99.90
55004;DHT22;40900;52.710;6.438;2023-09-18T13:50:28;23.20;99.90
55004;DHT22;40900;52.710;6.438;2023-09-18T13:52:54;23.20;99.90
55004;DHT22;40900;52.710;6.438;2023-09-18T13:55:20;23.10;99.90
55004;DHT22;40900;52.710;6.438;2023-09-18T13:57:46;23.10;99.90
55004;DHT22;40900;52.710;6.438;2023-09-18T14:00:12;23.00;99.90
55004;DHT22;40900;52.710;6.438;2023-09-18T14:02:41;23.00;99.90
55004;DHT22;40900;52.710;6.438;2023-09-18T14:05:07;23.30;99.90
55004;DHT22;40900;52.710;6.438;2023-09-18T14:07:35;23.40;99.90
55004;DHT22;40900;52.710;6.438;2023-09-18T14:10:01;23.50;99.90
55004;DHT22;40900;52.710;6.438;2023-09-18T14:12:32;23.30;99.90
55004;DHT22;40900;52.710;6.438;2023-09-18T14:14:58;23.30;99.90
55004;DHT22;40900;52.710;6.438;2023-09-18T14:17:23;23.30;99.90
55004;DHT22;40900;52.710;6.438;2023-09-18T14:19:49;23.30;99.90
55004;DHT22;40900;52.710;6.438;2023-09-18T14:22:15;23.20;99.90
55004;DHT22;40900;52.710;6.438;2023-09-18T14:24:40;23.10;99.90
55004;DHT22;40900;52.710;6.438;2023-09-18T14:27:06;23.20;99.90
55004;DHT22;40900;52.710;6.438;2023-09-18T14:29:33;23.20;99.90
55004;DHT22;40900;52.710;6.438;2023-09-18T14:32:00;23.20;99.90
55004;DHT22;40900;52.710;6.438;2023-09-18T14:34:26;23.10;99.90
55004;DHT22;40900;52.710;6.438;2023-09-18T14:36:52;23.10;99.90
55004;DHT22;40900;52.710;6.438;2023-09-18T14:39:18;23.10;99.90
55004;DHT22;40900;52.710;6.438;2023-09-18T14:41:44;23.10;99.90
55004;DHT22;40900;52.710;6.438;2023-09-18T14:44:10;23.00;99.90
55004;DHT22;40900;52.710;6.438;2023-09-18T14:46:36;22.90;99.90
55004;DHT22;40900;52.710;6.438;2023-09-18T14:49:03;22.90;99.90
55004;DHT22;40900;52.710;6.438;2023-09-18T14:51:29;22.90;99.90
55004;DHT22;40900;52.710;6.438;2023-09-18T14:53:56;22.90;99.90
55004;DHT22;40900;52.710;6.438;2023-09-18T14:56:23;23.00;99.90
55004;DHT22;40900;52.710;6.438;2023-09-18T14:58:49;23.00;99.90
55004;DHT22;40900;52.710;6.438;2023-09-18T15:01:21;23.00;99.90
55004;DHT22;40900;52.710;6.438;2023-09-18T15:03:47;23.00;99.90
55004;DHT22;40900;52.710;6.438;2023-09-18T15:06:14;23.00;99.90
55004;DHT22;40900;52.710;6.438;2023-09-18T15:08:40;23.00;99.90
55004;DHT22;40900;52.710;6.438;2023-09-18T15:11:06;23.00;99.90
55004;DHT22;40900;52.710;6.438;2023-09-18T15:13:33;23.10;99.90
55004;DHT22;40900;52.710;6.438;2023-09-18T15:16:01;23.00;99.90
55004;DHT22;40900;52.710;6.438;2023-09-18T15:18:26;22.90;99.90
55004;DHT22;40900;52.710;6.438;2023-09-18T15:20:52;22.90;99.90
55004;DHT22;40900;52.710;6.438;2023-09-18T15:23:24;22.80;99.90
55004;DHT22;40900;52.710;6.438;2023-09-18T15:25:53;22.90;99.90
55004;DHT22;40900;52.710;6.438;2023-09-18T15:28:23;23.00;99.90
55004;DHT22;40900;52.710;6.438;2023-09-18T15:30:51;23.00;99.90
55004;DHT22;40900;52.710;6.438;2023-09-18T15:33:17;23.00;99.90
55004;DHT22;40900;52.710;6.438;2023-09-18T15:35:43;23.00;99.90
55004;DHT22;40900;52.710;6.438;2023-09-18T15:38:09;22.90;99.90
55004;DHT22;40900;52.710;6.438;2023-09-18T15:40:36;22.80;99.90
55004;DHT22;40900;52.710;6.438;2023-09-18T15:43:02;22.70;99.90
55004;DHT22;40900;52.710;6.438;2023-09-18T15:45:28;22.60;99.90